createdAt,value
2017-07-26T05:31:47.744Z,1156
2017-07-26T05:32:13.204Z,1128
2017-07-26T05:32:38.651Z,1092
2017-07-26T05:33:04.089Z,1080
2017-07-26T05:33:29.584Z,1084
2017-07-26T05:33:55.030Z,1104
2017-07-26T05:34:20.492Z,1072
2017-07-26T05:34:46.015Z,1072
2017-07-26T05:35:11.454Z,1112
2017-07-26T05:35:36.915Z,1052
2017-07-26T05:36:02.395Z,1008
2017-07-26T05:36:27.890Z,1024
2017-07-26T05:36:53.378Z,1048
2017-07-26T05:37:18.812Z,1144
2017-07-26T05:37:44.304Z,1248
2017-07-26T05:38:09.709Z,1452
2017-07-26T05:38:35.170Z,1496
2017-07-26T05:39:00.650Z,1480
2017-07-26T05:39:26.091Z,1432
2017-07-26T05:39:51.537Z,1708
2017-07-26T05:40:16.970Z,1972
2017-07-26T05:40:42.425Z,1704
2017-07-26T05:41:07.880Z,1684
2017-07-26T05:41:33.338Z,1788
2017-07-26T05:41:58.850Z,2012
2017-07-26T05:42:24.276Z,2124
2017-07-26T05:42:49.722Z,2016
2017-07-26T05:43:15.173Z,2112
2017-07-26T05:43:40.638Z,2656
2017-07-26T05:44:06.081Z,2872
2017-07-26T05:44:31.535Z,2672
2017-07-26T05:44:56.989Z,3176
2017-07-26T05:45:22.499Z,3000
2017-07-26T05:45:47.933Z,2800
2017-07-26T05:46:13.382Z,2700
2017-07-26T05:46:38.820Z,2616
2017-07-26T05:47:04.235Z,2624
2017-07-26T05:47:29.691Z,2636
2017-07-26T05:47:55.151Z,2664
2017-07-26T05:48:20.659Z,2768
2017-07-26T05:48:46.159Z,2428
2017-07-26T05:49:11.602Z,2340
2017-07-26T05:49:37.090Z,2352
2017-07-26T05:50:02.551Z,2132
2017-07-26T05:50:28.028Z,2464
2017-07-26T05:50:53.479Z,3276
2017-07-26T05:51:18.914Z,3564
2017-07-26T05:51:44.373Z,2664
2017-07-26T05:52:09.769Z,2416
2017-07-26T05:52:35.246Z,2236
2017-07-26T05:53:00.724Z,2436
2017-07-26T05:53:26.202Z,4164
2017-07-26T05:53:51.666Z,3524
2017-07-26T05:54:17.171Z,3020
2017-07-26T05:54:42.599Z,3108
2017-07-26T05:55:08.050Z,3188
2017-07-26T05:55:33.471Z,4516
2017-07-26T05:55:58.943Z,4020
2017-07-26T05:56:24.486Z,3416
2017-07-26T05:56:49.950Z,3140
2017-07-26T05:57:15.425Z,9092
2017-07-26T05:57:40.891Z,5228
2017-07-26T05:58:06.367Z,4692
2017-07-26T05:58:31.898Z,3728
2017-07-26T05:58:57.331Z,4372
2017-07-26T05:59:22.781Z,4576
2017-07-26T05:59:48.226Z,5572
2017-07-26T06:00:13.656Z,4824
2017-07-26T06:00:39.144Z,4608
2017-07-26T06:01:04.585Z,3872
2017-07-26T06:01:30.057Z,5548
2017-07-26T06:01:55.530Z,3552
2017-07-26T06:02:21.028Z,4388
2017-07-26T06:02:46.473Z,4548
2017-07-26T06:03:11.993Z,4716
2017-07-26T06:03:37.458Z,4624
2017-07-26T06:04:02.901Z,5712
2017-07-26T06:04:28.381Z,6684
2017-07-26T06:04:53.817Z,4900
2017-07-26T06:05:19.289Z,4484
2017-07-26T06:06:33.160Z,6624
2017-07-26T06:06:58.618Z,4924
2017-07-26T06:07:24.094Z,5060
2017-07-26T06:07:49.558Z,6008
2017-07-26T06:08:15.062Z,5136
2017-07-26T06:08:40.433Z,2744
2017-07-26T06:09:05.917Z,3268
2017-07-26T06:09:31.372Z,3956
2017-07-26T06:09:56.825Z,3856
2017-07-26T06:10:22.287Z,3704
2017-07-26T06:10:47.734Z,4360
2017-07-26T06:11:13.155Z,4100
2017-07-26T06:11:38.647Z,3956
2017-07-26T06:12:04.070Z,4628
2017-07-26T06:12:29.498Z,4824
2017-07-26T06:12:54.961Z,5280
2017-07-26T06:13:20.371Z,5832
2017-07-26T06:13:45.855Z,5976
2017-07-26T06:14:11.290Z,5560
2017-07-26T06:14:36.728Z,5384
2017-07-26T06:15:02.193Z,5268
2017-07-26T06:15:27.681Z,4704
2017-07-26T06:15:53.065Z,4488
2017-07-26T06:16:18.546Z,5560
2017-07-26T06:16:43.982Z,5772
2017-07-26T06:17:09.442Z,5476
2017-07-26T06:17:34.898Z,3764
2017-07-26T06:18:00.362Z,5040
2017-07-26T06:18:25.820Z,4732
2017-07-26T06:18:51.269Z,3960
2017-07-26T06:19:16.744Z,4520
2017-07-26T06:19:42.165Z,6452
2017-07-26T06:20:07.596Z,4712
2017-07-26T06:20:33.053Z,5344
2017-07-26T06:20:58.511Z,4800
2017-07-26T06:21:23.965Z,4428
2017-07-26T06:21:49.441Z,5640
2017-07-26T06:22:14.879Z,5280
2017-07-26T06:22:40.344Z,3676
2017-07-26T06:23:05.783Z,4312
2017-07-26T06:23:31.199Z,2796
2017-07-26T06:23:56.692Z,5068
2017-07-26T06:24:22.137Z,5692
2017-07-26T06:24:47.604Z,3780
2017-07-26T06:25:13.034Z,3468
2017-07-26T06:25:38.448Z,3148
2017-07-26T06:26:03.947Z,4300
2017-07-26T06:26:29.386Z,2508
2017-07-26T06:26:54.886Z,2588
2017-07-26T06:27:20.348Z,2788
2017-07-26T06:27:45.799Z,2848
2017-07-26T06:28:11.258Z,3216
2017-07-26T06:28:36.763Z,3852
2017-07-26T06:29:02.254Z,4900
2017-07-26T06:29:27.718Z,5664
2017-07-26T06:29:53.244Z,5396
2017-07-26T06:30:18.731Z,4584
2017-07-26T06:30:44.204Z,4688
2017-07-26T06:31:09.663Z,4736
2017-07-26T06:31:35.105Z,5048
2017-07-26T06:32:00.586Z,5056
2017-07-26T06:32:26.054Z,5380
2017-07-26T06:32:51.593Z,5940
2017-07-26T06:33:17.098Z,6252
2017-07-26T06:33:42.616Z,5428
2017-07-26T06:34:08.093Z,4632
2017-07-26T06:34:33.568Z,3836
2017-07-26T06:34:59.069Z,3992
2017-07-26T06:35:24.498Z,4292
2017-07-26T06:35:49.938Z,5212
2017-07-26T06:36:15.435Z,6404
2017-07-26T06:36:40.900Z,6468
2017-07-26T06:37:06.385Z,7332
2017-07-26T06:37:31.865Z,6404
2017-07-26T06:37:57.325Z,6368
2017-07-26T06:38:22.803Z,5992
2017-07-26T06:38:48.293Z,4956
2017-07-26T06:39:13.742Z,4144
2017-07-26T06:40:27.546Z,2788
2017-07-26T06:40:53.036Z,2900
2017-07-26T06:41:18.497Z,2880
2017-07-26T06:41:43.958Z,2836
2017-07-26T06:42:09.448Z,3668
2017-07-26T06:42:34.905Z,3040
2017-07-26T06:43:00.356Z,2760
2017-07-26T06:43:25.846Z,3124
2017-07-26T06:43:51.326Z,2544
2017-07-26T06:44:16.782Z,2884
2017-07-26T06:44:42.252Z,3588
2017-07-26T06:45:07.661Z,4248
2017-07-26T06:45:33.116Z,3976
2017-07-26T06:45:58.594Z,3288
2017-07-26T06:46:24.038Z,4164
2017-07-26T06:46:49.507Z,2484
2017-07-26T06:47:14.972Z,2412
2017-07-26T06:47:40.416Z,2480
2017-07-26T06:48:05.990Z,2564
2017-07-26T06:48:31.495Z,2684
2017-07-26T06:48:56.941Z,3096
2017-07-26T06:49:22.393Z,3044
2017-07-26T06:49:47.874Z,2980
2017-07-26T06:50:13.335Z,2892
2017-07-26T06:50:38.797Z,2224
2017-07-26T06:51:04.305Z,2132
2017-07-26T06:51:29.792Z,2160
2017-07-26T06:51:55.262Z,2060
2017-07-26T06:52:20.753Z,2200
2017-07-26T06:52:46.297Z,1972
2017-07-26T06:53:11.723Z,2080
2017-07-26T06:53:37.194Z,2296
2017-07-26T06:54:02.663Z,4260
2017-07-26T06:54:28.141Z,3580
2017-07-26T06:54:53.601Z,2772
2017-07-26T06:55:19.071Z,3036
2017-07-26T06:55:44.610Z,3180
2017-07-26T06:56:10.140Z,2952
2017-07-26T06:56:35.622Z,2840
2017-07-26T06:57:01.079Z,5292
2017-07-26T06:57:26.514Z,5264
2017-07-26T06:57:52.007Z,4032
2017-07-26T06:58:17.496Z,5796
2017-07-26T06:58:42.996Z,5076
2017-07-26T06:59:08.464Z,5760
2017-07-26T06:59:33.946Z,6800
2017-07-26T06:59:59.461Z,6792
2017-07-26T07:00:24.937Z,6568
2017-07-26T07:00:50.395Z,6404
2017-07-26T07:01:15.898Z,3416
2017-07-26T07:01:41.414Z,2952
2017-07-26T07:02:44.999Z,5140
2017-07-26T07:03:10.481Z,3336
2017-07-26T07:03:36.027Z,2976
2017-07-26T07:04:01.448Z,2948
2017-07-26T07:04:26.904Z,5340
2017-07-26T07:04:52.395Z,5644
2017-07-26T07:05:17.902Z,5672
2017-07-26T07:05:43.371Z,3580
2017-07-26T07:06:08.862Z,2836
2017-07-26T07:06:34.348Z,4324
2017-07-26T07:06:59.826Z,2304
2017-07-26T07:07:25.330Z,2344
2017-07-26T07:07:50.818Z,2788
2017-07-26T07:08:16.285Z,2940
2017-07-26T07:08:41.777Z,4880
2017-07-26T07:09:07.343Z,4848
2017-07-26T07:09:32.729Z,4768
2017-07-26T07:09:58.169Z,4744
2017-07-26T07:10:23.634Z,4764
2017-07-26T07:10:49.151Z,4688
2017-07-26T07:11:14.624Z,4596
2017-07-26T07:11:40.124Z,4620
2017-07-26T07:12:05.622Z,4648
2017-07-26T07:12:31.075Z,4628
2017-07-26T07:12:56.588Z,4644
2017-07-26T07:13:22.141Z,4684
2017-07-26T07:13:47.628Z,4728
2017-07-26T07:14:13.093Z,4708
2017-07-26T07:14:38.598Z,4708
2017-07-26T07:15:04.083Z,4796
2017-07-26T07:15:29.567Z,4808
2017-07-26T07:15:55.042Z,4824
2017-07-26T07:16:20.492Z,4844
2017-07-26T07:16:45.981Z,4816
2017-07-26T07:17:11.528Z,4856
2017-07-26T07:17:36.993Z,4852
2017-07-26T07:18:02.505Z,4872
2017-07-26T07:18:27.977Z,4816
2017-07-26T07:18:53.468Z,4876
2017-07-26T07:19:18.924Z,4936
2017-07-26T07:19:44.391Z,4936
2017-07-26T07:20:09.830Z,4920
2017-07-26T07:20:35.313Z,5236
2017-07-26T07:21:00.744Z,5764
2017-07-26T07:22:04.333Z,5256
2017-07-26T07:22:29.787Z,5976
2017-07-26T07:22:55.272Z,7056
2017-07-26T07:23:20.702Z,6516
2017-07-26T07:23:46.197Z,6640
2017-07-26T07:24:11.686Z,6220
2017-07-26T07:24:37.131Z,5600
2017-07-26T07:25:02.619Z,5156
2017-07-26T07:25:28.072Z,4964
2017-07-26T07:25:53.567Z,5124
2017-07-26T07:26:19.024Z,5376
2017-07-26T07:26:44.537Z,5136
2017-07-26T07:27:10.019Z,4632
2017-07-26T07:27:35.506Z,3796
2017-07-26T07:28:00.952Z,4784
2017-07-26T07:28:26.414Z,4868
2017-07-26T07:28:51.900Z,4872
2017-07-26T07:29:17.366Z,4912
2017-07-26T07:29:42.840Z,4452
2017-07-26T07:30:08.325Z,3364
2017-07-26T07:30:33.861Z,4608
2017-07-26T07:30:59.287Z,3200
2017-07-26T07:31:24.809Z,5100
2017-07-26T07:31:50.288Z,4520
2017-07-26T07:32:15.749Z,3292
2017-07-26T07:32:41.219Z,2884
2017-07-26T07:33:06.717Z,4384
2017-07-26T07:33:32.184Z,4328
2017-07-26T07:33:57.629Z,4300
2017-07-26T07:34:23.102Z,4312
2017-07-26T07:34:48.594Z,4276
2017-07-26T07:35:14.109Z,4108
2017-07-26T07:35:39.565Z,4292
2017-07-26T07:36:05.038Z,4240
2017-07-26T07:36:30.534Z,4168
2017-07-26T07:36:56.060Z,4212
2017-07-26T07:37:21.528Z,4152
2017-07-26T07:37:47.044Z,4268
2017-07-26T07:38:12.465Z,4316
2017-07-26T07:38:37.968Z,4376
2017-07-26T07:39:03.455Z,4604
2017-07-26T07:39:28.962Z,5056
2017-07-26T07:39:54.482Z,5640
2017-07-26T07:40:19.960Z,6336
2017-07-26T07:40:45.469Z,6092
2017-07-26T07:41:10.970Z,8872
2017-07-26T07:41:36.508Z,8428
2017-07-26T07:42:01.956Z,8488
2017-07-26T07:42:27.419Z,8216
2017-07-26T07:42:52.881Z,7184
2017-07-26T07:43:18.390Z,6340
2017-07-26T07:43:43.851Z,5824
2017-07-26T07:44:09.363Z,3656
2017-07-26T07:44:34.845Z,2848
2017-07-26T07:45:00.376Z,4480
2017-07-26T07:45:25.836Z,4404
2017-07-26T07:45:51.305Z,2536
2017-07-26T07:46:16.800Z,4280
2017-07-26T07:46:42.295Z,2892
2017-07-26T07:47:07.733Z,4196
2017-07-26T07:47:33.225Z,4124
2017-07-26T07:47:58.678Z,3324
2017-07-26T07:48:24.192Z,4064
2017-07-26T07:48:49.695Z,4068
2017-07-26T07:49:15.188Z,4036
2017-07-26T07:49:40.652Z,4040
2017-07-26T07:50:06.137Z,4044
2017-07-26T07:50:31.617Z,4048
2017-07-26T07:50:57.148Z,4104
2017-07-26T07:51:22.696Z,4204
2017-07-26T07:51:48.157Z,4428
2017-07-26T07:52:13.599Z,4604
2017-07-26T07:52:39.109Z,4736
2017-07-26T07:53:04.593Z,4768
2017-07-26T07:53:30.109Z,4612
2017-07-26T07:53:55.567Z,4452
2017-07-26T07:54:21.017Z,3024
2017-07-26T07:54:46.496Z,2496
2017-07-26T07:55:12.033Z,4352
2017-07-26T07:55:37.484Z,4304
2017-07-26T07:56:02.964Z,4312
2017-07-26T07:56:28.426Z,4268
2017-07-26T07:56:53.936Z,2916
2017-07-26T07:57:19.473Z,4288
2017-07-26T07:57:44.926Z,4992
2017-07-26T07:58:10.412Z,4552
2017-07-26T07:58:35.897Z,4492
2017-07-26T07:59:01.404Z,4252
2017-07-26T07:59:26.899Z,4248
2017-07-26T07:59:52.408Z,3608
2017-07-26T08:00:17.947Z,4484
2017-07-26T08:00:43.450Z,4760
2017-07-26T08:01:08.983Z,5128
2017-07-26T08:01:34.472Z,5596
2017-07-26T08:01:59.953Z,5268
2017-07-26T08:02:25.428Z,4968
2017-07-26T08:02:50.894Z,4464
2017-07-26T08:03:16.417Z,4396
2017-07-26T08:03:41.872Z,4476
2017-07-26T08:04:07.372Z,4676
2017-07-26T08:04:32.886Z,4628
2017-07-26T08:04:58.359Z,4848
2017-07-26T08:05:23.858Z,4764
2017-07-26T08:05:49.327Z,4868
2017-07-26T08:06:14.833Z,4500
2017-07-26T08:06:40.309Z,4256
2017-07-26T08:07:05.794Z,4260
2017-07-26T08:07:31.275Z,4260
2017-07-26T08:07:56.782Z,3172
2017-07-26T08:08:22.228Z,4780
2017-07-26T08:08:47.791Z,4724
2017-07-26T08:09:13.282Z,4848
2017-07-26T08:09:38.805Z,5416
2017-07-26T08:10:04.314Z,6428
2017-07-26T08:10:29.758Z,8156
2017-07-26T08:10:55.229Z,9004
2017-07-26T08:11:20.701Z,10108
2017-07-26T08:11:46.196Z,9812
2017-07-26T08:12:11.655Z,8640
2017-07-26T08:12:37.271Z,7104
2017-07-26T08:13:02.735Z,5196
2017-07-26T08:13:28.246Z,5028
2017-07-26T08:13:53.695Z,4888
2017-07-26T08:14:19.178Z,4492
2017-07-26T08:14:44.699Z,4564
2017-07-26T08:15:10.230Z,5528
2017-07-26T08:15:35.722Z,5200
2017-07-26T08:16:01.193Z,3924
2017-07-26T08:16:26.677Z,3792
2017-07-26T08:16:52.195Z,5148
2017-07-26T08:17:17.703Z,6084
2017-07-26T08:17:43.190Z,6632
2017-07-26T08:18:08.659Z,5656
2017-07-26T08:18:34.143Z,3856
2017-07-26T08:18:59.625Z,3084
2017-07-26T08:19:25.127Z,3144
2017-07-26T08:19:50.603Z,3180
2017-07-26T08:20:16.077Z,3132
2017-07-26T08:20:41.615Z,4196
2017-07-26T08:21:07.064Z,3692
2017-07-26T08:21:32.533Z,3896
2017-07-26T08:21:58.032Z,4044
2017-07-26T08:22:23.540Z,4496
2017-07-26T08:22:49.047Z,4776
2017-07-26T08:23:14.501Z,5252
2017-07-26T08:23:39.950Z,5216
2017-07-26T08:24:05.426Z,4700
2017-07-26T08:24:30.846Z,4184
2017-07-26T08:24:56.339Z,4424
2017-07-26T08:25:21.804Z,4484
2017-07-26T08:26:30.529Z,5460
2017-07-26T08:26:55.971Z,6612
2017-07-26T08:27:21.480Z,6796
2017-07-26T08:27:46.953Z,6716
2017-07-26T08:28:12.439Z,6444
2017-07-26T08:28:37.905Z,4964
2017-07-26T08:29:03.367Z,5412
2017-07-26T08:29:28.856Z,6584
2017-07-26T08:29:54.291Z,6016
2017-07-26T08:31:08.073Z,4388
2017-07-26T08:31:33.526Z,4404
2017-07-26T08:31:58.994Z,4852
2017-07-26T08:32:24.478Z,5868
2017-07-26T08:32:49.987Z,6756
2017-07-26T08:33:15.466Z,7424
2017-07-26T08:33:40.932Z,7376
2017-07-26T08:34:06.444Z,6652
2017-07-26T08:34:31.912Z,9172
2017-07-26T08:34:57.441Z,9920
2017-07-26T08:35:22.915Z,9960
2017-07-26T08:35:48.421Z,9088
2017-07-26T08:36:13.908Z,6908
2017-07-26T08:36:39.406Z,6712
2017-07-26T08:37:04.879Z,6520
2017-07-26T08:37:30.387Z,5596
2017-07-26T08:37:55.887Z,5508
2017-07-26T08:38:21.352Z,5728
2017-07-26T08:38:46.822Z,5812
2017-07-26T08:39:12.331Z,5944
2017-07-26T08:39:37.830Z,6292
2017-07-26T08:40:03.292Z,6708
2017-07-26T08:40:28.788Z,6888
2017-07-26T08:40:54.266Z,7152
2017-07-26T08:41:19.737Z,6584
2017-07-26T08:41:45.193Z,6072
2017-07-26T08:42:10.694Z,5752
2017-07-26T08:42:36.167Z,5832
2017-07-26T08:43:01.626Z,6104
2017-07-26T08:43:27.109Z,6860
2017-07-26T08:43:52.577Z,7744
2017-07-26T08:44:18.059Z,6800
2017-07-26T08:44:43.535Z,7448
2017-07-26T08:45:09.031Z,6920
2017-07-26T08:45:34.492Z,6592
2017-07-26T08:45:59.976Z,4816
2017-07-26T08:46:25.473Z,4544
2017-07-26T08:46:50.920Z,4680
2017-07-26T08:47:16.389Z,5096
2017-07-26T08:47:41.864Z,6072
2017-07-26T08:48:07.317Z,6952
2017-07-26T08:48:32.824Z,6592
2017-07-26T08:48:58.292Z,6404
2017-07-26T08:49:23.783Z,5672
2017-07-26T08:49:49.273Z,5284
2017-07-26T08:50:14.728Z,4572
2017-07-26T08:50:40.224Z,3840
2017-07-26T08:51:05.710Z,2572
2017-07-26T08:51:31.197Z,2796
2017-07-26T08:51:56.678Z,2748
2017-07-26T08:52:22.108Z,2868
2017-07-26T08:52:47.590Z,4440
2017-07-26T08:53:13.054Z,4908
2017-07-26T08:53:38.523Z,5092
2017-07-26T08:54:04.022Z,6284
2017-07-26T08:54:29.511Z,6732
2017-07-26T08:54:54.998Z,6660
2017-07-26T08:55:20.466Z,6468
2017-07-26T08:55:45.958Z,6512
2017-07-26T08:56:11.441Z,7128
2017-07-26T08:56:36.870Z,7216
2017-07-26T08:57:02.362Z,7496
2017-07-26T08:57:27.829Z,6828
2017-07-26T08:57:53.299Z,5784
2017-07-26T08:58:18.778Z,5408
2017-07-26T08:58:44.222Z,4500
2017-07-26T08:59:09.699Z,4192
2017-07-26T08:59:35.196Z,3752
2017-07-26T09:00:00.666Z,3552
2017-07-26T09:00:26.126Z,4080
2017-07-26T09:00:51.598Z,4556
2017-07-26T09:01:17.107Z,4260
2017-07-26T09:01:42.570Z,3796
2017-07-26T09:02:08.087Z,3496
2017-07-26T09:02:33.586Z,4240
2017-07-26T09:02:59.074Z,4476
2017-07-26T09:03:24.560Z,5496
2017-07-26T09:03:50.051Z,6676
2017-07-26T09:04:15.534Z,6768
2017-07-26T09:04:41.013Z,7248
2017-07-26T09:05:06.530Z,7192
2017-07-26T09:05:32.020Z,6076
2017-07-26T09:05:57.506Z,4536
2017-07-26T09:06:22.979Z,3664
2017-07-26T09:06:48.489Z,2400
2017-07-26T09:07:13.945Z,2120
2017-07-26T09:07:39.406Z,2120
2017-07-26T09:08:04.921Z,2300
2017-07-26T09:08:30.370Z,3340
2017-07-26T09:08:55.885Z,3352
2017-07-26T09:09:21.384Z,3300
2017-07-26T09:09:46.863Z,3284
2017-07-26T09:10:12.318Z,3280
2017-07-26T09:10:37.798Z,3328
2017-07-26T09:11:03.291Z,3332
2017-07-26T09:11:28.763Z,3344
2017-07-26T09:11:54.200Z,3372
2017-07-26T09:12:19.682Z,3472
2017-07-26T09:12:45.140Z,3680
2017-07-26T09:13:10.626Z,3808
2017-07-26T09:13:36.148Z,4064
2017-07-26T09:14:01.593Z,4416
2017-07-26T09:14:27.068Z,4684
2017-07-26T09:14:52.559Z,5016
2017-07-26T09:15:18.080Z,5496
2017-07-26T09:15:43.557Z,5808
2017-07-26T09:16:09.047Z,6280
2017-07-26T09:16:34.515Z,7052
2017-07-26T09:16:59.980Z,6720
2017-07-26T09:17:25.449Z,4732
2017-07-26T09:17:50.940Z,4340
2017-07-26T09:18:16.467Z,3644
2017-07-26T09:18:41.921Z,2484
2017-07-26T09:19:07.378Z,2384
2017-07-26T09:19:32.839Z,2320
2017-07-26T09:19:58.296Z,2316
2017-07-26T09:20:23.801Z,3236
2017-07-26T09:20:49.292Z,3360
2017-07-26T09:21:14.766Z,3300
2017-07-26T09:21:40.254Z,3232
2017-07-26T09:22:05.722Z,3192
2017-07-26T09:22:31.215Z,3160
2017-07-26T09:22:56.677Z,3144
2017-07-26T09:23:22.159Z,3128
2017-07-26T09:23:47.610Z,3104
2017-07-26T09:24:13.127Z,3092
2017-07-26T09:24:38.605Z,3080
2017-07-26T09:25:04.064Z,3064
2017-07-26T09:25:29.562Z,3072
2017-07-26T09:25:55.038Z,3088
2017-07-26T09:26:20.482Z,3124
2017-07-26T09:26:46.004Z,3168
2017-07-26T09:27:11.481Z,3240
2017-07-26T09:27:36.956Z,3332
2017-07-26T09:28:02.429Z,3440
2017-07-26T09:28:27.910Z,3620
2017-07-26T09:28:53.388Z,3952
2017-07-26T09:29:18.838Z,4472
2017-07-26T09:30:32.865Z,7940
2017-07-26T09:30:58.361Z,8396
2017-07-26T09:31:23.832Z,8340
2017-07-26T09:31:49.320Z,8124
2017-07-26T09:32:14.794Z,8060
2017-07-26T09:32:40.279Z,7540
2017-07-26T09:33:05.763Z,7608
2017-07-26T09:33:31.255Z,8104
2017-07-26T09:33:56.737Z,8868
2017-07-26T09:34:22.222Z,9080
2017-07-26T09:34:47.675Z,8744
2017-07-26T09:35:13.169Z,8720
2017-07-26T09:35:38.666Z,8396
2017-07-26T09:36:04.158Z,8484
2017-07-26T09:36:29.620Z,8164
2017-07-26T09:36:55.131Z,9332
2017-07-26T09:37:20.614Z,9328
2017-07-26T09:37:46.088Z,9284
2017-07-26T09:38:11.547Z,9000
2017-07-26T09:38:37.023Z,7424
2017-07-26T09:39:02.542Z,6540
2017-07-26T09:39:28.026Z,4968
2017-07-26T09:39:53.481Z,4068
2017-07-26T09:40:18.973Z,4156
2017-07-26T09:40:44.461Z,4452
2017-07-26T09:41:09.940Z,4272
2017-07-26T09:41:35.414Z,3352
2017-07-26T09:42:00.891Z,3528
2017-07-26T09:42:26.342Z,3136
2017-07-26T09:42:51.836Z,2988
2017-07-26T09:43:17.340Z,2912
2017-07-26T09:43:42.811Z,3020
2017-07-26T09:44:08.270Z,2760
2017-07-26T09:44:33.782Z,3652
2017-07-26T09:44:59.265Z,3508
2017-07-26T09:45:24.775Z,3440
2017-07-26T09:45:50.230Z,3392
2017-07-26T09:46:15.715Z,3364
2017-07-26T09:46:41.187Z,3364
2017-07-26T09:47:06.685Z,3348
2017-07-26T09:47:32.179Z,3352
2017-07-26T09:47:57.649Z,3356
2017-07-26T09:48:23.111Z,3364
2017-07-26T09:48:48.590Z,3360
2017-07-26T09:49:14.074Z,3352
2017-07-26T09:49:39.536Z,3356
2017-07-26T09:50:05.028Z,3424
2017-07-26T09:50:30.494Z,3604
2017-07-26T09:50:55.978Z,3888
2017-07-26T09:51:21.460Z,4332
2017-07-26T09:51:46.946Z,4968
2017-07-26T09:52:12.422Z,5712
2017-07-26T09:52:37.913Z,6480
2017-07-26T09:53:03.398Z,7220
2017-07-26T09:53:28.877Z,7896
2017-07-26T09:53:54.350Z,7976
2017-07-26T09:54:19.818Z,7488
2017-07-26T09:54:45.301Z,6972
2017-07-26T09:55:10.786Z,6176
2017-07-26T09:55:36.285Z,5412
2017-07-26T09:56:01.739Z,4976
2017-07-26T09:56:27.196Z,4512
2017-07-26T09:56:52.670Z,4452
2017-07-26T09:57:18.153Z,4444
2017-07-26T09:57:43.632Z,4168
2017-07-26T09:58:09.109Z,3404
2017-07-26T09:58:34.610Z,2968
2017-07-26T09:59:00.110Z,2736
2017-07-26T09:59:25.606Z,3180
2017-07-26T09:59:51.071Z,3140
2017-07-26T10:00:16.557Z,3128
2017-07-26T10:00:42.007Z,2972
2017-07-26T10:01:07.508Z,3096
2017-07-26T10:01:32.986Z,3196
2017-07-26T10:01:58.436Z,3220
2017-07-26T10:02:23.947Z,3260
2017-07-26T10:02:49.407Z,3352
2017-07-26T10:03:14.905Z,3460
2017-07-26T10:03:40.385Z,3636
2017-07-26T10:04:05.839Z,3948
2017-07-26T10:04:31.339Z,4468
2017-07-26T10:04:56.828Z,5020
2017-07-26T10:05:22.304Z,5652
2017-07-26T10:05:47.794Z,6560
2017-07-26T10:06:13.267Z,7744
2017-07-26T10:06:38.770Z,8836
2017-07-26T10:07:04.227Z,9828
2017-07-26T10:07:29.716Z,9836
2017-07-26T10:07:55.208Z,9912
2017-07-26T10:08:20.672Z,9440
2017-07-26T10:08:46.149Z,8500
2017-07-26T10:09:11.603Z,7384
2017-07-26T10:09:37.093Z,6528
2017-07-26T10:10:02.594Z,5368
2017-07-26T10:10:28.079Z,4720
2017-07-26T10:10:53.575Z,4280
2017-07-26T10:11:19.061Z,3984
2017-07-26T10:11:44.554Z,3772
2017-07-26T10:12:10.025Z,3452
2017-07-26T10:12:35.489Z,3320
2017-07-26T10:13:00.993Z,3508
2017-07-26T10:13:26.508Z,2940
2017-07-26T10:13:51.986Z,2808
2017-07-26T10:14:17.478Z,2696
2017-07-26T10:14:42.993Z,2688
2017-07-26T10:15:08.469Z,2576
2017-07-26T10:15:33.985Z,2512
2017-07-26T10:15:59.458Z,2420
2017-07-26T10:16:24.937Z,2380
2017-07-26T10:16:50.386Z,2452
2017-07-26T10:17:15.884Z,2972
2017-07-26T10:17:41.357Z,2896
2017-07-26T10:18:06.839Z,2920
2017-07-26T10:18:32.283Z,2920
2017-07-26T10:18:57.773Z,2940
2017-07-26T10:19:23.266Z,2956
2017-07-26T10:19:48.787Z,2980
2017-07-26T10:20:14.251Z,3044
2017-07-26T10:20:39.750Z,3188
2017-07-26T10:21:05.222Z,3352
2017-07-26T10:21:30.673Z,3532
2017-07-26T10:22:49.564Z,4840
2017-07-26T10:23:15.112Z,5732
2017-07-26T10:23:40.598Z,6856
2017-07-26T10:24:06.069Z,7668
2017-07-26T10:24:31.520Z,7920
2017-07-26T10:24:56.992Z,7832
2017-07-26T10:25:22.477Z,7688
2017-07-26T10:25:47.980Z,7776
2017-07-26T10:26:13.450Z,7848
2017-07-26T10:26:38.968Z,7660
2017-07-26T10:27:04.518Z,7444
2017-07-26T10:27:29.966Z,7320
2017-07-26T10:27:55.434Z,7308
2017-07-26T10:28:20.900Z,7424
2017-07-26T10:28:46.363Z,7616
2017-07-26T10:29:11.855Z,7800
2017-07-26T10:29:37.351Z,7924
2017-07-26T10:30:02.839Z,7652
2017-07-26T10:30:28.280Z,7568
2017-07-26T10:30:53.734Z,7280
2017-07-26T10:31:19.206Z,7080
2017-07-26T10:31:44.714Z,6588
2017-07-26T10:32:10.198Z,6284
2017-07-26T10:32:35.693Z,6092
2017-07-26T10:33:01.179Z,5544
2017-07-26T10:33:26.640Z,5072
2017-07-26T10:33:52.127Z,4676
2017-07-26T10:34:17.621Z,4400
2017-07-26T10:34:43.086Z,4172
2017-07-26T10:35:08.586Z,4052
2017-07-26T10:35:34.054Z,4016
2017-07-26T10:35:59.512Z,4320
2017-07-26T10:36:25.007Z,4720
2017-07-26T10:36:50.465Z,5392
2017-07-26T10:37:15.930Z,6080
2017-07-26T10:37:41.431Z,6288
2017-07-26T10:38:06.911Z,6112
2017-07-26T10:38:32.365Z,5584
2017-07-26T10:38:57.872Z,4816
2017-07-26T10:39:23.328Z,4628
2017-07-26T10:39:48.868Z,4512
2017-07-26T10:40:14.348Z,4472
2017-07-26T10:40:39.829Z,4512
2017-07-26T10:41:05.300Z,4548
2017-07-26T10:41:30.769Z,4516
2017-07-26T10:41:56.272Z,4524
2017-07-26T10:42:21.746Z,4680
2017-07-26T10:42:47.225Z,4896
2017-07-26T10:43:12.711Z,5184
2017-07-26T10:43:38.183Z,5464
2017-07-26T10:44:03.650Z,5792
2017-07-26T10:44:29.116Z,6144
2017-07-26T10:44:54.624Z,6444
2017-07-26T10:45:20.104Z,6664
2017-07-26T10:45:45.596Z,6728
2017-07-26T10:46:11.066Z,6756
2017-07-26T10:46:36.547Z,6780
2017-07-26T10:47:02.041Z,6772
2017-07-26T10:47:27.498Z,6676
2017-07-26T10:47:52.977Z,6428
2017-07-26T10:48:18.431Z,6196
2017-07-26T10:48:43.921Z,5884
2017-07-26T10:49:09.383Z,5696
2017-07-26T10:49:34.875Z,5388
2017-07-26T10:50:00.363Z,5068
2017-07-26T10:50:25.866Z,4936
2017-07-26T10:50:51.336Z,4924
2017-07-26T10:51:16.825Z,4952
2017-07-26T10:51:42.311Z,4892
2017-07-26T10:52:07.792Z,4536
2017-07-26T10:52:33.261Z,4192
2017-07-26T10:52:58.752Z,3924
2017-07-26T10:53:24.231Z,3616
2017-07-26T10:53:49.703Z,3296
2017-07-26T10:54:15.160Z,3408
2017-07-26T10:54:40.646Z,4080
2017-07-26T10:55:06.116Z,4460
2017-07-26T10:55:31.603Z,4860
2017-07-26T10:55:57.086Z,5280
2017-07-26T10:56:22.591Z,5856
2017-07-26T10:56:48.036Z,6568
2017-07-26T10:57:13.485Z,7020
2017-07-26T10:57:38.992Z,7448
2017-07-26T10:58:04.476Z,7516
2017-07-26T10:58:30.009Z,7440
2017-07-26T10:58:55.537Z,7128
2017-07-26T10:59:20.983Z,6564
2017-07-26T10:59:46.455Z,5884
2017-07-26T11:00:11.959Z,5280
2017-07-26T11:00:37.431Z,4664
2017-07-26T11:01:02.910Z,4300
2017-07-26T11:01:28.400Z,4596
2017-07-26T11:01:53.864Z,4576
2017-07-26T11:02:19.378Z,5168
2017-07-26T11:02:44.849Z,6116
2017-07-26T11:03:10.339Z,6480
2017-07-26T11:03:35.808Z,6492
2017-07-26T11:04:01.259Z,6760
2017-07-26T11:04:26.738Z,6928
2017-07-26T11:04:52.201Z,7212
2017-07-26T11:05:17.687Z,7128
2017-07-26T11:05:43.161Z,7076
2017-07-26T11:06:08.624Z,7204
2017-07-26T11:06:34.109Z,7460
2017-07-26T11:06:59.567Z,7472
2017-07-26T11:07:25.048Z,7008
2017-07-26T11:07:50.560Z,6492
2017-07-26T11:08:16.014Z,6136
2017-07-26T11:08:41.463Z,5832
2017-07-26T11:09:06.910Z,5500
2017-07-26T11:09:32.404Z,5264
2017-07-26T11:09:57.877Z,5200
2017-07-26T11:10:23.349Z,5064
2017-07-26T11:10:48.829Z,4920
2017-07-26T11:11:14.322Z,4628
2017-07-26T11:11:39.791Z,4356
2017-07-26T11:12:05.242Z,4060
2017-07-26T11:12:30.743Z,3848
2017-07-26T11:12:56.181Z,3972
2017-07-26T11:13:21.641Z,4340
2017-07-26T11:13:47.107Z,4840
2017-07-26T11:14:12.580Z,5664
2017-07-26T11:14:38.071Z,6436
2017-07-26T11:15:03.568Z,6892
2017-07-26T11:15:29.058Z,7128
2017-07-26T11:15:54.561Z,6820
2017-07-26T11:16:20.011Z,6456
2017-07-26T11:16:45.515Z,5848